Flight ASX205X

  • Submitted By: Lukasz Przybylak
  • Departure Airport: Gdansk im. Lecha Walesy (EPGD)
  • Arrival Airport: Katowice Pyrzowice (EPKT)
  • Aircraft: KING AIR 350 (SP-DBL)
  • Flight Time: 01.39.40
  • Date Submitted: 09/03/2017
  • Status: Accepted
Flight Details
Gross Revenue:
(8 load / € 80.00 per unit
€ 640.00
Fuel Cost:
(411.862 fuel used @ 0.45 / unit)
€ 185.34

Additional Log Information:

View Log

[13:36] - CARENADO B350i King Air N406MC
[13:36] - Flight ASX205X is ready to depart EPGD with a final destination of EPKT.
[13:36] - Parking Brake Applied
[13:36] - Boarding
[13:36] - ADF1 - 284.0
[13:36] - ADF2 - 240.0
[13:36] - NAV1 - 113.70
[13:36] - NAV2 - 110.60
[13:36] - COM1 - 128.30
[13:36] - COM2 - 127.80
[13:36] - Transponder - 1200
[13:37] - Engine 1 Started
[13:37] - Beacon Light ON 3AGL
[13:38] - Navigation Lights ON 3AGL
[13:38] - Taxi Lights ON 3AGL
[13:38] - Pushing Back from the gate
[13:38] - Parking Brake Released
[13:39] - Parking Brake Applied
[13:39] - Engine 2 Started
[13:43] - Parking Brake Released
[13:44] - Taxiing to Runway
[13:47] - Taxi Lights OFF 3AGL
[13:47] - Landing Lights ON 3AGL
[13:48] - Strobe Lights ON 3AGL
[13:53] - Taking Off with 8 passengers on board
[13:53] - Take off at 148kts, with a pitch of 7deg and 3617lbs of fuel on board
[13:53] - Wind Heading 299 | Wind Speed 13kts | Temperature 14 deg C
[13:53] - METAR Departure: EPGD 031130Z 29012KT 6000 -SHRA FEW005 BKN009 14/13 Q1010

[13:53] - Climbing to TOC
[13:53] - Gear up at 567AGL
[13:54] - AutoPilot Engaged at 2432AGL
[13:56] - AutoPilot Disengaged at 3150AGL
[13:57] - AutoPilot Engaged at 3520AGL
[14:01] - Landing Lights OFF 7074AGL
[14:08] - TOC reached
[14:08] - Cruise started
[14:55] - TOD reached
[14:55] - Descending to destination
[14:58] - Landing Lights ON 8982AGL
[15:02] - Landing Shortly
[15:04] - AutoPilot Disengaged at 2395AGL
[15:04] - Gear down at 1981AGL
[15:05] - Flaps to position 1 at 2392ft and 179kts
[15:07] - Flaps to position 2 at 1873ft and 156kts
[15:08] - Landed at -425fpm. With 2764lbs of fuel onboard and a pitch angle of -1deg.
[15:08] - Wind Heading 345 | Wind Speed 7kts | Temperature 13 deg C
[15:08] - METAR Arrival: EPKT 031230Z 32008KT 9999 -RA SCT008 BKN010 13/11 Q1011

[15:09] - Taxiing to Gate
[15:10] - Landing Lights OFF 6AGL
[15:10] - Taxi Lights ON 6AGL
[15:14] - Parking Brake Applied
[15:14] - Arrived safely at EPKT. We hope you enjoyed your flight!
[15:14] - Strobe Lights OFF 6AGL
[15:14] - Beacon Lights OFF 6AGL
[15:14] - Taxi Lights OFF 6AGL
[15:14] - Beacon Light ON 6AGL
[15:14] - Navigation Lights OFF 6AGL
[15:14] - Engine 2 Stopped
[15:14] - Engine 1 Stopped
[15:15] - Beacon Lights OFF 6AGL
[15:16] - CARENADO B350i King Air N406MC
[15:16] - MaxSim Rate: 1x
[15:16] - SiouxAcars ver: 1.0.1.2

Route Map